Time;durP1;ratioP1;P1;durP2;ratioP2;P2;SDS_P1;SDS_P2;PMS_P1;PMS_P2;Temp;Humidity;BMP_temperature;BMP_pressure;BME280_temperature;BME280_humidity;BME280_pressure;Samples;Min_cycle;Max_cycle;Signal;HPM_P1;HPM_P2
2022/09/06 00:00:33;;;;;;;19.77;16.50;;;19.40;99.90;;;;;;4949379;28;20414;-67
2022/09/06 00:02:59;;;;;;;21.17;16.90;;;19.40;99.90;;;;;;4951672;28;20810;-67
2022/09/06 00:05:26;;;;;;;18.25;15.98;;;19.30;99.90;;;;;;4968440;28;20054;-67
2022/09/06 00:07:52;;;;;;;20.75;15.45;;;19.30;99.90;;;;;;4967330;28;20122;-67
2022/09/06 00:10:18;;;;;;;16.88;15.32;;;19.30;99.90;;;;;;4967778;28;20125;-67
2022/09/06 00:12:44;;;;;;;17.92;15.85;;;19.30;99.90;;;;;;4951053;28;20447;-67
2022/09/06 00:15:10;;;;;;;19.67;17.52;;;19.20;99.90;;;;;;4965834;28;20049;-67
2022/09/06 00:17:36;;;;;;;19.05;17.10;;;19.20;99.90;;;;;;4957959;28;20047;-67
2022/09/06 00:20:03;;;;;;;19.90;17.65;;;19.20;99.90;;;;;;4967299;28;20063;-67
2022/09/06 00:22:29;;;;;;;18.10;16.30;;;19.10;99.90;;;;;;4968461;28;20051;-67
2022/09/06 00:24:55;;;;;;;27.65;18.33;;;19.10;99.90;;;;;;4967247;28;20039;-67
2022/09/06 00:27:21;;;;;;;21.23;17.35;;;19.00;99.90;;;;;;4970406;28;20050;-67
2022/09/06 00:29:47;;;;;;;17.98;16.15;;;19.00;99.90;;;;;;4971213;28;20502;-67
2022/09/06 00:32:13;;;;;;;18.48;16.58;;;19.00;99.90;;;;;;4971903;28;20050;-67
2022/09/06 00:34:39;;;;;;;16.65;14.98;;;19.00;99.90;;;;;;4961571;28;20050;-67
2022/09/06 00:37:04;;;;;;;20.00;16.45;;;19.00;99.90;;;;;;4968611;28;20054;-67
2022/09/06 00:39:30;;;;;;;22.83;16.52;;;19.00;99.90;;;;;;4970191;28;20089;-67
2022/09/06 00:41:55;;;;;;;17.55;15.77;;;19.00;99.90;;;;;;4970103;28;20694;-67
2022/09/06 00:44:21;;;;;;;17.95;16.10;;;19.00;99.90;;;;;;4971830;28;20053;-67
2022/09/06 00:46:50;;;;;;;18.50;16.33;;;18.90;99.90;;;;;;4971699;28;20049;-67
2022/09/06 00:49:26;;;;;;;18.92;16.90;;;18.90;99.90;;;;;;4971623;28;20141;-67
2022/09/06 00:51:59;;;;;;;18.90;17.00;;;18.90;99.90;;;;;;4971786;28;20062;-67
2022/09/06 00:54:25;;;;;;;32.45;17.00;;;18.90;99.90;;;;;;4958101;28;20277;-67
2022/09/06 00:56:50;;;;;;;18.50;16.58;;;18.80;99.90;;;;;;4952856;28;20424;-67
2022/09/06 00:59:16;;;;;;;18.77;16.88;;;18.80;99.90;;;;;;4960063;28;20049;-67
2022/09/06 01:01:42;;;;;;;19.42;17.52;;;18.70;99.90;;;;;;4970326;28;20067;-67
2022/09/06 01:04:08;;;;;;;18.73;15.25;;;18.70;99.90;;;;;;4970574;28;20050;-67
2022/09/06 01:06:50;;;;;;;20.33;18.15;;;18.70;99.90;;;;;;4970044;28;20102;-67
2022/09/06 01:09:24;;;;;;;19.30;17.50;;;18.70;99.90;;;;;;4967125;28;20150;-67
2022/09/06 01:12:03;;;;;;;19.30;16.98;;;18.70;99.90;;;;;;4968963;28;20039;-67
2022/09/06 01:15:24;;;;;;;19.85;17.70;;;18.70;99.90;;;;;;4965901;28;20086;-67
2022/09/06 01:18:03;;;;;;;19.90;17.80;;;18.70;99.90;;;;;;4956154;28;20055;-67
2022/09/06 01:21:23;;;;;;;21.38;17.45;;;18.70;99.90;;;;;;4955642;28;20047;-67
2022/09/06 01:24:12;;;;;;;17.90;16.20;;;18.70;99.90;;;;;;4929378;29;20417;-66
2022/09/06 01:27:15;;;;;;;19.23;15.90;;;18.80;99.90;;;;;;4969221;28;20047;-67
2022/09/06 01:29:40;;;;;;;20.92;16.95;;;18.80;99.90;;;;;;4970816;28;20043;-67
2022/09/06 01:32:28;;;;;;;22.90;19.55;;;18.80;99.90;;;;;;4969361;28;20113;-67
2022/09/06 01:35:21;;;;;;;23.42;18.15;;;18.80;99.90;;;;;;4962910;28;20895;-67
2022/09/06 01:37:47;;;;;;;19.10;16.88;;;18.80;99.90;;;;;;4960154;28;20047;-67
2022/09/06 01:40:12;;;;;;;19.02;16.58;;;18.80;99.90;;;;;;4970395;28;20069;-67
2022/09/06 01:42:40;;;;;;;24.60;18.20;;;18.90;99.90;;;;;;4967442;28;20057;-67
2022/09/06 01:45:08;;;;;;;;;;;18.90;99.90;;;;;;4959392;28;20073;-67
2022/09/06 01:47:45;;;;;;;20.52;16.40;;;18.70;99.90;;;;;;4971064;28;19969;-67
2022/09/06 01:50:23;;;;;;;21.20;18.90;;;18.60;99.90;;;;;;4958443;28;20074;-67
2022/09/06 01:52:55;;;;;;;20.05;17.95;;;18.60;99.90;;;;;;4968607;28;20408;-67
2022/09/06 01:55:28;;;;;;;21.55;19.38;;;18.60;99.90;;;;;;4951674;28;20051;-67
2022/09/06 01:58:20;;;;;;;19.77;17.23;;;18.70;99.90;;;;;;4962176;28;20515;-67
2022/09/06 02:01:12;;;;;;;20.50;17.15;;;18.70;99.90;;;;;;4969168;28;20105;-67
2022/09/06 02:04:02;;;;;;;20.88;18.85;;;18.70;99.90;;;;;;4970665;28;20070;-67
2022/09/06 02:06:42;;;;;;;19.75;17.23;;;18.60;99.90;;;;;;4969688;28;20114;-67
2022/09/06 02:09:20;;;;;;;22.20;19.83;;;18.50;99.90;;;;;;4969959;28;20053;-67
2022/09/06 02:11:50;;;;;;;20.85;18.63;;;18.50;99.90;;;;;;4968212;28;20403;-67
2022/09/06 02:14:41;;;;;;;21.00;18.77;;;18.40;99.90;;;;;;4968695;28;20053;-67
2022/09/06 02:17:12;;;;;;;21.02;18.65;;;18.50;99.90;;;;;;4962270;28;20122;-67
2022/09/06 02:19:49;;;;;;;22.70;20.10;;;18.40;99.90;;;;;;4958487;28;20575;-67
2022/09/06 02:22:18;;;;;;;21.70;19.45;;;18.40;99.90;;;;;;4949949;28;20039;-68
2022/09/06 02:24:46;;;;;;;19.55;17.42;;;18.40;99.90;;;;;;4963456;28;20042;-68
2022/09/06 02:27:13;;;;;;;18.70;16.70;;;18.50;99.90;;;;;;4962756;28;20053;-68
2022/09/06 02:29:39;;;;;;;28.05;19.60;;;18.50;99.90;;;;;;4962333;28;20098;-68
2022/09/06 02:32:21;;;;;;;19.75;17.83;;;18.50;99.90;;;;;;4954978;28;20047;-68
2022/09/06 02:34:52;;;;;;;20.60;17.52;;;18.50;99.90;;;;;;4962928;28;20102;-68
2022/09/06 02:37:18;;;;;;;20.67;18.73;;;18.50;99.90;;;;;;4966865;28;20081;-68
2022/09/06 02:39:44;;;;;;;20.60;17.25;;;18.50;99.90;;;;;;4969766;28;20070;-68
2022/09/06 02:42:13;;;;;;;20.02;18.20;;;18.50;99.90;;;;;;4964398;28;20047;-68
2022/09/06 02:44:39;;;;;;;29.73;18.17;;;18.50;99.90;;;;;;4968257;28;20121;-68
2022/09/06 02:47:05;;;;;;;20.40;17.95;;;18.60;99.90;;;;;;4968529;28;20118;-68
2022/09/06 02:49:31;;;;;;;19.75;17.70;;;18.60;99.90;;;;;;4968263;28;20121;-68
2022/09/06 02:51:57;;;;;;;20.98;18.77;;;18.50;99.90;;;;;;4964530;28;20925;-68
2022/09/06 02:54:23;;;;;;;20.25;18.35;;;18.50;99.90;;;;;;4962496;28;20097;-68
2022/09/06 02:56:49;;;;;;;18.95;16.92;;;18.50;99.90;;;;;;4961644;28;20205;-68
2022/09/06 02:59:15;;;;;;;24.13;19.63;;;18.50;99.90;;;;;;4967984;28;20050;-69
2022/09/06 03:01:41;;;;;;;19.52;17.48;;;18.40;99.90;;;;;;4960804;28;20070;-69
2022/09/06 03:04:07;;;;;;;19.98;18.00;;;18.40;99.90;;;;;;4968166;28;20460;-68
2022/09/06 03:06:33;;;;;;;21.08;19.08;;;18.50;99.90;;;;;;4968338;28;20073;-68
2022/09/06 03:08:59;;;;;;;19.92;17.90;;;18.40;99.90;;;;;;4957432;28;20398;-68
2022/09/06 03:11:26;;;;;;;21.40;19.27;;;18.40;99.90;;;;;;4966169;28;20039;-68
2022/09/06 03:13:51;;;;;;;23.15;20.90;;;18.30;99.90;;;;;;4967125;28;20073;-69
2022/09/06 03:16:18;;;;;;;20.88;18.73;;;18.20;99.90;;;;;;4968287;28;20439;-68
2022/09/06 03:18:43;;;;;;;21.98;19.77;;;18.10;99.90;;;;;;4968354;28;20439;-68
2022/09/06 03:21:09;;;;;;;22.27;20.13;;;18.00;99.90;;;;;;4968524;28;20053;-68
2022/09/06 03:23:37;;;;;;;24.60;19.58;;;17.90;99.90;;;;;;4967750;28;20443;-69
2022/09/06 03:26:03;;;;;;;22.20;19.98;;;17.80;99.90;;;;;;4966899;28;20415;-68
2022/09/06 03:28:28;;;;;;;23.20;18.95;;;17.80;99.90;;;;;;4967491;28;20037;-68
2022/09/06 03:30:54;;;;;;;21.40;19.25;;;17.80;99.90;;;;;;4972260;28;20053;-68
2022/09/06 03:33:20;;;;;;;22.27;18.73;;;17.80;99.90;;;;;;4973720;28;20121;-68
2022/09/06 03:36:05;;;;;;;21.80;19.58;;;17.80;99.90;;;;;;4961850;28;20055;-69
2022/09/06 03:38:31;;;;;;;26.50;20.52;;;17.80;99.90;;;;;;4968038;28;20059;-69
2022/09/06 03:40:57;;;;;;;21.73;19.38;;;17.70;99.90;;;;;;4967171;28;20065;-69
2022/09/06 03:43:24;;;;;;;23.58;21.08;;;17.60;99.90;;;;;;4964822;28;20042;-69
2022/09/06 03:45:53;;;;;;;22.73;20.48;;;17.60;99.90;;;;;;4968038;28;20057;-69
2022/09/06 03:48:20;;;;;;;24.92;22.25;;;17.60;99.90;;;;;;4968264;28;20488;-69
2022/09/06 03:50:51;;;;;;;25.25;22.73;;;17.60;99.90;;;;;;4967829;28;20046;-69
2022/09/06 03:53:17;;;;;;;23.75;21.25;;;17.50;99.90;;;;;;4965141;28;20046;-69
2022/09/06 03:55:47;;;;;;;28.17;22.17;;;17.50;99.90;;;;;;4967089;28;20608;-69
2022/09/06 03:58:14;;;;;;;27.00;23.00;;;17.50;99.90;;;;;;4967532;28;20050;-69
2022/09/06 04:00:40;;;;;;;25.40;23.00;;;17.50;99.90;;;;;;4967566;28;20043;-69
2022/09/06 04:03:06;;;;;;;24.50;21.90;;;17.40;99.90;;;;;;4967494;28;20190;-69
2022/09/06 04:05:31;;;;;;;24.67;22.10;;;17.50;99.90;;;;;;4966795;28;20046;-69
2022/09/06 04:07:57;;;;;;;27.08;22.00;;;17.50;99.90;;;;;;4968077;28;20464;-69
2022/09/06 04:10:23;;;;;;;24.98;21.98;;;17.50;99.90;;;;;;4957030;28;20054;-68
2022/09/06 04:12:48;;;;;;;23.80;21.38;;;17.50;99.90;;;;;;4966945;28;20055;-69
2022/09/06 04:15:14;;;;;;;23.70;21.40;;;17.50;99.90;;;;;;4967925;28;20086;-69
2022/09/06 04:17:44;;;;;;;27.92;23.25;;;17.50;99.90;;;;;;4968865;28;20042;-69
2022/09/06 04:20:11;;;;;;;25.73;21.92;;;17.40;99.90;;;;;;4967084;28;20118;-69
2022/09/06 04:22:37;;;;;;;24.65;22.00;;;17.40;99.90;;;;;;4968385;28;20065;-69
2022/09/06 04:25:04;;;;;;;28.63;22.23;;;17.40;99.90;;;;;;4965603;28;20109;-69
2022/09/06 04:27:29;;;;;;;24.58;21.80;;;17.50;99.90;;;;;;4960606;28;20106;-69
2022/09/06 04:29:55;;;;;;;25.33;22.23;;;17.50;99.90;;;;;;4965289;28;20424;-69
2022/09/06 04:32:21;;;;;;;24.30;21.70;;;17.50;99.90;;;;;;4968596;28;20049;-69
2022/09/06 04:34:47;;;;;;;25.15;21.00;;;17.60;99.90;;;;;;4966776;28;20047;-69
2022/09/06 04:37:18;;;;;;;25.17;22.42;;;17.60;99.90;;;;;;4955717;28;20395;-69
2022/09/06 04:39:45;;;;;;;26.08;23.27;;;17.60;99.90;;;;;;4964060;28;20121;-68
2022/09/06 04:42:11;;;;;;;23.95;21.67;;;17.60;99.90;;;;;;4967797;28;20487;-69
2022/09/06 04:44:37;;;;;;;24.27;21.85;;;17.60;99.90;;;;;;4954403;28;20086;-68
2022/09/06 04:47:11;;;;;;;25.15;22.55;;;17.70;99.90;;;;;;4949033;29;20105;-68
2022/09/06 04:49:37;;;;;;;34.95;22.30;;;17.70;99.90;;;;;;4963687;28;20161;-69
2022/09/06 04:52:03;;;;;;;23.70;21.23;;;17.60;99.90;;;;;;4968061;28;20113;-69
2022/09/06 04:54:28;;;;;;;25.88;22.52;;;17.70;99.90;;;;;;4968039;28;20439;-68
2022/09/06 04:56:54;;;;;;;27.65;21.27;;;17.70;99.90;;;;;;4968470;28;20480;-69
2022/09/06 04:59:20;;;;;;;23.20;20.90;;;17.80;99.90;;;;;;4967511;28;20043;-68
2022/09/06 05:01:45;;;;;;;27.35;21.80;;;17.80;99.90;;;;;;4967426;28;20503;-68
2022/09/06 05:04:11;;;;;;;24.80;21.58;;;17.80;99.90;;;;;;4965645;28;20526;-69
2022/09/06 05:06:38;;;;;;;31.30;22.25;;;17.70;99.90;;;;;;4966374;28;20042;-69
2022/09/06 05:09:03;;;;;;;30.13;22.38;;;17.80;99.90;;;;;;4962699;28;20059;-68
2022/09/06 05:11:29;;;;;;;24.23;21.33;;;17.80;99.90;;;;;;4968399;28;20050;-68
2022/09/06 05:13:55;;;;;;;23.65;21.30;;;17.80;99.90;;;;;;4971222;28;20168;-69
2022/09/06 05:16:20;;;;;;;25.20;22.67;;;17.80;99.90;;;;;;4970026;28;20066;-68
2022/09/06 05:18:46;;;;;;;23.88;21.45;;;17.90;99.90;;;;;;4963134;28;20864;-68
2022/09/06 05:21:12;;;;;;;25.55;22.15;;;17.90;99.90;;;;;;4970581;28;20524;-68
2022/09/06 05:23:37;;;;;;;22.98;20.58;;;17.90;99.90;;;;;;4970999;28;20122;-69
2022/09/06 05:26:03;;;;;;;24.33;21.60;;;17.90;99.90;;;;;;4966842;28;20039;-66
2022/09/06 05:28:29;;;;;;;25.23;21.38;;;17.90;99.90;;;;;;4970715;28;20042;-67
2022/09/06 05:31:21;;;;;;;31.42;22.55;;;17.90;99.90;;;;;;4970846;28;20416;-69
2022/09/06 05:33:46;;;;;;;26.00;21.05;;;18.00;99.90;;;;;;4970769;28;20090;-68
2022/09/06 05:36:12;;;;;;;22.50;20.35;;;18.00;99.90;;;;;;4970540;28;20077;-68
2022/09/06 05:38:38;;;;;;;23.75;21.25;;;18.00;99.90;;;;;;4953422;28;20038;-68
2022/09/06 05:41:03;;;;;;;23.33;21.20;;;18.00;99.90;;;;;;4969541;28;20058;-68
2022/09/06 05:43:29;;;;;;;25.30;22.70;;;18.00;99.90;;;;;;4966957;28;20051;-69
2022/09/06 05:45:55;;;;;;;29.13;26.33;;;17.90;99.90;;;;;;4969639;28;20470;-69
2022/09/06 05:48:20;;;;;;;27.30;24.60;;;17.80;99.90;;;;;;4969700;28;20043;-69
2022/09/06 05:50:46;;;;;;;29.13;26.08;;;17.60;99.90;;;;;;4969736;28;20069;-69
2022/09/06 05:53:12;;;;;;;31.83;27.25;;;17.60;99.90;;;;;;4970685;28;20126;-69
2022/09/06 05:55:37;;;;;;;30.42;26.40;;;17.50;99.90;;;;;;4970864;28;20082;-69
2022/09/06 05:58:03;;;;;;;31.20;25.48;;;17.50;99.90;;;;;;4970675;28;20069;-69
2022/09/06 06:00:28;;;;;;;28.20;25.30;;;17.60;99.90;;;;;;4960750;28;20098;-70
2022/09/06 06:02:54;;;;;;;28.13;25.15;;;17.70;99.90;;;;;;4962515;28;20054;-70
2022/09/06 06:05:19;;;;;;;29.08;26.25;;;17.70;99.90;;;;;;4959987;28;20411;-69
2022/09/06 06:07:45;;;;;;;28.40;24.92;;;17.80;99.90;;;;;;4970002;28;20113;-69
2022/09/06 06:10:11;;;;;;;32.80;29.52;;;17.80;99.90;;;;;;4968664;28;20115;-69
2022/09/06 06:12:36;;;;;;;33.03;28.38;;;17.70;99.90;;;;;;4969633;28;20057;-68
2022/09/06 06:15:04;;;;;;;31.23;28.05;;;17.70;99.90;;;;;;4968955;28;20492;-69
2022/09/06 06:17:30;;;;;;;39.30;27.92;;;17.70;99.90;;;;;;4953108;28;20053;-67
2022/09/06 06:19:57;;;;;;;32.58;29.13;;;17.70;99.90;;;;;;4967541;28;20042;-67
2022/09/06 06:22:22;;;;;;;32.00;28.75;;;17.70;99.90;;;;;;4968925;28;20058;-67
2022/09/06 06:24:48;;;;;;;34.92;29.17;;;17.70;99.90;;;;;;4959463;28;20567;-67
2022/09/06 06:27:13;;;;;;;32.58;28.77;;;17.60;99.90;;;;;;4966911;28;20121;-67
2022/09/06 06:29:39;;;;;;;31.75;28.33;;;17.70;99.90;;;;;;4968055;28;20499;-68
2022/09/06 06:32:05;;;;;;;35.03;31.05;;;17.70;99.90;;;;;;4968026;28;20046;-69
2022/09/06 06:34:30;;;;;;;35.63;29.95;;;17.70;99.90;;;;;;4958184;28;20070;-69
2022/09/06 06:36:56;;;;;;;38.10;30.10;;;17.70;99.90;;;;;;4955539;28;20073;-69
2022/09/06 06:39:22;;;;;;;37.40;28.95;;;17.80;99.90;;;;;;4968368;28;20039;-67
2022/09/06 06:41:49;;;;;;;34.45;30.77;;;17.80;99.90;;;;;;4963855;28;20182;-67
2022/09/06 06:44:15;;;;;;;32.75;29.38;;;17.70;99.90;;;;;;4967975;28;20444;-67
2022/09/06 06:46:41;;;;;;;40.17;29.90;;;17.80;99.90;;;;;;4957850;28;20051;-69
2022/09/06 06:49:06;;;;;;;34.83;30.38;;;17.80;99.90;;;;;;4965022;28;20047;-70
2022/09/06 06:51:36;;;;;;;32.10;28.63;;;17.90;99.90;;;;;;4968721;28;20076;-70
2022/09/06 06:54:03;;;;;;;38.45;29.35;;;18.00;99.90;;;;;;4969624;28;20094;-67
2022/09/06 06:56:31;;;;;;;33.05;29.48;;;18.20;99.90;;;;;;4968321;28;20101;-67
2022/09/06 06:58:59;;;;;;;39.33;31.75;;;18.30;99.90;;;;;;4969725;28;20050;-68
2022/09/06 07:01:27;;;;;;;35.35;31.05;;;18.30;99.90;;;;;;4969784;28;20042;-67
2022/09/06 07:03:53;;;;;;;;;;;18.40;99.90;;;;;;4964274;28;20062;-68
2022/09/06 07:06:20;;;;;;;40.08;29.95;;;18.40;99.90;;;;;;4967464;28;19926;-68
2022/09/06 07:08:46;;;;;;;33.75;29.55;;;18.40;99.90;;;;;;4969278;28;20070;-68
2022/09/06 07:11:13;;;;;;;34.95;31.13;;;18.50;99.90;;;;;;4969583;28;20062;-68
2022/09/06 07:13:39;;;;;;;34.50;30.80;;;18.50;99.90;;;;;;4962547;28;20047;-68
2022/09/06 07:16:19;;;;;;;35.28;30.17;;;18.50;99.90;;;;;;4966801;28;20123;-68
2022/09/06 07:18:46;;;;;;;36.47;31.83;;;18.50;99.90;;;;;;4967548;28;20046;-68
2022/09/06 07:21:15;;;;;;;35.80;30.25;;;18.50;99.90;;;;;;4953268;28;20179;-68
2022/09/06 07:23:45;;;;;;;34.42;30.77;;;18.50;99.90;;;;;;4964770;28;20042;-68
2022/09/06 07:26:15;;;;;;;36.72;32.80;;;18.50;99.90;;;;;;4960174;28;20056;-69
2022/09/06 07:28:41;;;;;;;37.10;32.40;;;18.50;99.90;;;;;;4964375;28;20499;-69
2022/09/06 07:31:07;;;;;;;39.15;33.33;;;18.50;99.90;;;;;;4967228;28;20053;-68
2022/09/06 07:33:35;;;;;;;35.63;31.92;;;18.50;99.90;;;;;;4968443;28;20047;-69
2022/09/06 07:36:03;;;;;;;36.63;32.83;;;18.50;99.90;;;;;;4968630;28;20186;-69
2022/09/06 07:38:29;;;;;;;36.78;31.77;;;18.60;99.90;;;;;;4964779;28;20043;-69
2022/09/06 07:40:57;;;;;;;35.53;31.17;;;18.60;99.90;;;;;;4966415;28;20106;-66
2022/09/06 07:43:24;;;;;;;35.15;31.45;;;18.60;99.90;;;;;;4968488;28;20082;-69
2022/09/06 07:46:15;;;;;;;37.53;33.38;;;18.60;99.90;;;;;;4964306;28;20050;-66
2022/09/06 07:48:43;;;;;;;34.50;30.83;;;18.70;99.90;;;;;;4962074;28;20125;-67
2022/09/06 07:51:19;;;;;;;35.53;31.83;;;18.80;99.90;;;;;;4964007;28;20047;-67
2022/09/06 07:53:54;;;;;;;37.97;34.10;;;19.00;99.90;;;;;;4961755;28;20053;-68
2022/09/06 07:56:21;;;;;;;38.70;34.75;;;19.10;99.90;;;;;;4964484;28;20916;-68
2022/09/06 07:58:47;;;;;;;39.50;34.78;;;19.30;99.90;;;;;;4963929;28;20603;-68
2022/09/06 08:01:29;;;;;;;44.35;35.03;;;19.50;99.90;;;;;;4959303;28;20405;-67
2022/09/06 08:03:59;;;;;;;42.28;33.58;;;19.90;99.90;;;;;;4968027;28;20046;-67
2022/09/06 08:06:26;;;;;;;35.80;32.13;;;20.40;99.90;;;;;;4968192;28;20046;-66
2022/09/06 08:08:53;;;;;;;39.47;35.28;;;20.60;99.90;;;;;;4967063;28;20050;-66
2022/09/06 08:11:19;;;;;;;37.42;33.55;;;20.90;99.90;;;;;;4964141;28;20051;-66
2022/09/06 08:13:56;;;;;;;35.63;32.17;;;21.10;99.90;;;;;;4966757;28;20038;-66
2022/09/06 08:16:24;;;;;;;36.33;32.45;;;21.50;99.90;;;;;;4967151;28;20070;-66
2022/09/06 08:18:55;;;;;;;34.17;30.63;;;21.70;99.90;;;;;;4962795;28;20114;-66
2022/09/06 08:21:22;;;;;;;34.45;31.15;;;21.80;99.90;;;;;;4962342;28;20079;-66
2022/09/06 08:23:53;;;;;;;40.08;30.80;;;22.20;99.90;;;;;;4965037;28;20058;-66
2022/09/06 08:26:21;;;;;;;29.25;26.40;;;22.30;99.90;;;;;;4963842;28;20510;-65
2022/09/06 08:28:47;;;;;;;29.77;26.70;;;22.60;99.90;;;;;;4967028;28;20133;-66
2022/09/06 08:31:15;;;;;;;37.20;28.15;;;22.80;99.90;;;;;;4966218;28;20201;-65
2022/09/06 08:33:41;;;;;;;;;;;23.10;99.90;;;;;;4966328;28;20400;-66
2022/09/06 08:36:07;;;;;;;30.33;27.23;;;23.10;99.90;;;;;;4961710;28;20290;-66
2022/09/06 08:38:33;;;;;;;30.20;27.05;;;23.20;99.90;;;;;;4965514;28;20038;-66
2022/09/06 08:41:23;;;;;;;28.98;25.55;;;23.30;99.90;;;;;;4966877;28;20070;-66
2022/09/06 08:43:58;;;;;;;30.48;27.67;;;23.50;99.90;;;;;;4965211;28;20187;-66
2022/09/06 08:46:35;;;;;;;29.95;27.05;;;23.50;99.90;;;;;;4968341;28;20048;-66
2022/09/06 08:49:01;;;;;;;31.30;26.48;;;23.60;99.90;;;;;;4970483;28;20470;-66
2022/09/06 08:51:33;;;;;;;28.25;25.40;;;23.50;99.90;;;;;;4972501;28;20051;-65
2022/09/06 08:54:07;;;;;;;30.33;27.42;;;23.50;99.90;;;;;;4967365;28;20042;-65
2022/09/06 08:57:02;;;;;;;29.30;26.25;;;23.70;99.90;;;;;;4970682;28;20130;-65
2022/09/06 08:59:33;;;;;;;31.08;27.75;;;23.80;99.90;;;;;;4965015;28;20210;-65
2022/09/06 09:02:09;;;;;;;32.10;28.70;;;23.80;99.90;;;;;;4964653;28;20065;-65
2022/09/06 09:04:37;;;;;;;31.23;27.92;;;23.90;99.90;;;;;;4970356;28;20554;-65
2022/09/06 09:07:32;;;;;;;29.42;26.48;;;24.10;99.90;;;;;;4971587;28;20061;-65
2022/09/06 09:09:59;;;;;;;31.23;26.52;;;24.30;99.90;;;;;;4956365;28;20066;-66
2022/09/06 09:12:29;;;;;;;26.77;24.08;;;24.50;99.90;;;;;;4970923;28;20050;-65
2022/09/06 09:15:01;;;;;;;29.00;24.38;;;24.50;99.90;;;;;;4971175;28;20049;-66
2022/09/06 09:17:30;;;;;;;25.15;21.90;;;24.50;99.90;;;;;;4971282;28;20069;-70
2022/09/06 09:19:56;;;;;;;30.27;22.60;;;24.50;99.90;;;;;;4971146;28;20101;-68
2022/09/06 09:22:24;;;;;;;30.88;24.05;;;24.50;99.90;;;;;;4969676;28;20392;-68
2022/09/06 09:24:51;;;;;;;25.15;22.65;;;24.30;99.90;;;;;;4967078;28;20039;-68
2022/09/06 09:27:26;;;;;;;41.33;25.25;;;24.30;99.90;;;;;;4965839;28;20089;-69
2022/09/06 09:29:54;;;;;;;28.20;25.23;;;24.40;99.90;;;;;;4964803;28;20046;-68
2022/09/06 09:32:32;;;;;;;28.63;25.67;;;24.50;99.90;;;;;;4970028;28;20515;-68
2022/09/06 09:35:28;;;;;;;33.88;24.25;;;24.60;99.90;;;;;;4966764;28;20059;-69
2022/09/06 09:38:06;;;;;;;30.35;21.98;;;24.80;99.90;;;;;;4964854;28;20075;-67
2022/09/06 09:40:54;;;;;;;28.65;25.20;;;25.00;99.90;;;;;;4969070;28;20062;-68
2022/09/06 09:43:30;;;;;;;28.17;23.35;;;25.20;99.90;;;;;;4967702;28;20046;-67
2022/09/06 09:46:08;;;;;;;24.13;21.67;;;25.20;99.90;;;;;;4952092;28;20051;-68
2022/09/06 09:48:34;;;;;;;28.40;23.58;;;25.40;99.90;;;;;;4971534;28;20399;-68
2022/09/06 09:51:24;;;;;;;39.38;23.48;;;25.60;99.90;;;;;;4969893;28;20086;-68
2022/09/06 09:53:58;;;;;;;26.17;23.75;;;25.70;99.90;;;;;;4969960;28;20039;-68
2022/09/06 09:57:05;;;;;;;27.85;24.67;;;25.80;99.90;;;;;;4968953;28;20035;-67
2022/09/06 09:59:43;;;;;;;24.63;22.13;;;25.80;99.90;;;;;;4968802;28;20050;-68
2022/09/06 10:02:29;;;;;;;26.08;23.35;;;25.70;99.90;;;;;;4968267;28;20132;-69
2022/09/06 10:05:24;;;;;;;24.73;21.90;;;25.80;99.90;;;;;;4951568;28;20054;-68
2022/09/06 10:07:54;;;;;;;23.13;20.83;;;25.80;99.90;;;;;;4968782;28;20134;-67
2022/09/06 10:10:48;;;;;;;29.33;23.15;;;25.70;98.60;;;;;;4969339;28;20053;-67
2022/09/06 10:13:28;;;;;;;27.48;24.33;;;25.90;99.40;;;;;;4965736;28;20051;-67
2022/09/06 10:15:54;;;;;;;26.27;23.45;;;25.90;98.00;;;;;;4961198;28;20070;-67
2022/09/06 10:18:19;;;;;;;23.05;20.55;;;26.00;99.20;;;;;;4966949;28;20043;-68
2022/09/06 10:21:05;;;;;;;22.02;19.92;;;26.20;97.90;;;;;;4968760;28;20047;-68
2022/09/06 10:23:51;;;;;;;28.73;21.88;;;26.40;97.00;;;;;;4969286;28;20043;-69
2022/09/06 10:26:24;;;;;;;23.38;20.55;;;26.60;96.50;;;;;;4968371;28;20054;-68
2022/09/06 10:29:00;;;;;;;22.40;17.20;;;26.50;94.80;;;;;;4961620;28;20043;-69
2022/09/06 10:31:34;;;;;;;21.10;18.85;;;26.80;94.80;;;;;;4964240;28;20416;-68
2022/09/06 10:34:26;;;;;;;19.20;17.30;;;26.80;93.00;;;;;;4958030;28;20106;-69
2022/09/06 10:37:23;;;;;;;20.90;18.75;;;26.90;91.90;;;;;;4955056;28;20046;-69
2022/09/06 10:40:06;;;;;;;;;;;27.00;91.40;;;;;;4969791;28;20527;-69
2022/09/06 10:42:53;;;;;;;20.02;18.08;;;26.90;90.30;;;;;;4966804;28;19925;-67
2022/09/06 10:45:19;;;;;;;;;;;27.00;90.10;;;;;;4969228;28;20573;-68
2022/09/06 10:47:57;;;;;;;22.25;16.92;;;27.10;87.40;;;;;;4969439;28;19922;-68
2022/09/06 10:50:37;;;;;;;20.88;18.98;;;27.20;87.50;;;;;;4968959;28;20049;-68
2022/09/06 10:53:12;;;;;;;18.35;16.52;;;27.00;89.20;;;;;;4966535;28;20508;-69
2022/09/06 10:55:40;;;;;;;17.20;15.60;;;27.00;89.00;;;;;;4964965;28;20062;-68
2022/09/06 10:58:09;;;;;;;14.50;13.20;;;27.20;88.20;;;;;;4968185;28;20043;-69
2022/09/06 11:00:47;;;;;;;25.40;15.85;;;27.40;86.50;;;;;;4968526;28;20047;-68
2022/09/06 11:03:33;;;;;;;17.33;15.70;;;27.50;84.50;;;;;;4983731;28;20400;-69
2022/09/06 11:06:09;;;;;;;27.77;14.82;;;27.70;82.50;;;;;;4966605;28;20090;-68
2022/09/06 11:08:56;;;;;;;21.52;19.02;;;27.80;83.60;;;;;;4969384;28;20050;-68
2022/09/06 11:11:38;;;;;;;16.58;15.10;;;27.90;78.80;;;;;;4963341;28;20054;-70
2022/09/06 11:14:10;;;;;;;17.83;16.23;;;27.60;79.20;;;;;;4959774;28;20117;-69
2022/09/06 11:16:51;;;;;;;18.50;16.42;;;27.70;79.90;;;;;;4966654;28;20047;-69
2022/09/06 11:19:23;;;;;;;16.88;15.05;;;27.80;80.60;;;;;;4950311;28;20065;-68
2022/09/06 11:22:02;;;;;;;13.25;12.15;;;27.90;79.80;;;;;;4953099;28;20615;-69
2022/09/06 11:24:53;;;;;;;14.10;12.77;;;28.00;75.60;;;;;;4967699;28;20465;-68
2022/09/06 11:27:30;;;;;;;13.00;11.85;;;28.10;75.90;;;;;;4953132;28;20097;-69
2022/09/06 11:29:58;;;;;;;18.77;15.10;;;28.20;76.00;;;;;;4963032;28;20526;-68
2022/09/06 11:32:31;;;;;;;22.27;14.25;;;28.30;75.50;;;;;;4967166;28;20048;-69
2022/09/06 11:35:00;;;;;;;18.83;14.63;;;28.40;75.40;;;;;;4966224;28;20896;-68
2022/09/06 11:37:38;;;;;;;15.15;13.75;;;28.50;74.40;;;;;;4963466;28;20035;-69
2022/09/06 11:40:17;;;;;;;16.75;13.95;;;28.50;74.20;;;;;;4966774;28;20909;-68
2022/09/06 11:42:43;;;;;;;15.07;13.68;;;28.50;74.10;;;;;;4967615;28;20067;-68
2022/09/06 11:45:20;;;;;;;16.30;14.75;;;28.50;73.20;;;;;;4967635;28;20061;-68
2022/09/06 11:47:51;;;;;;;14.43;13.02;;;28.50;72.70;;;;;;4968765;28;20125;-68
2022/09/06 11:50:20;;;;;;;13.63;12.43;;;28.50;71.70;;;;;;4965334;28;20051;-69
2022/09/06 11:53:04;;;;;;;13.82;12.73;;;28.60;71.70;;;;;;4968632;28;20125;-68
2022/09/06 11:55:30;;;;;;;13.80;12.40;;;28.70;69.50;;;;;;4967541;28;20038;-69
2022/09/06 11:57:58;;;;;;;14.05;12.55;;;28.70;70.60;;;;;;4967976;28;20050;-69
2022/09/06 12:00:25;;;;;;;11.95;11.00;;;28.80;69.90;;;;;;4967649;28;20047;-69
2022/09/06 12:02:51;;;;;;;17.48;13.30;;;28.90;68.80;;;;;;4968496;28;20791;-69
2022/09/06 12:05:29;;;;;;;14.75;13.18;;;28.90;68.70;;;;;;4966238;28;20075;-68
2022/09/06 12:08:13;;;;;;;14.45;13.07;;;28.80;67.70;;;;;;4967216;28;20626;-69
2022/09/06 12:10:39;;;;;;;15.77;14.20;;;28.90;66.80;;;;;;4968027;28;20119;-68
2022/09/06 12:13:42;;;;;;;18.90;14.40;;;28.80;67.30;;;;;;4967944;28;20126;-68
2022/09/06 12:16:10;;;;;;;11.57;10.60;;;28.80;67.30;;;;;;4966257;28;20051;-68
2022/09/06 12:18:41;;;;;;;12.35;11.18;;;28.80;67.10;;;;;;4966863;28;20325;-68
2022/09/06 12:21:08;;;;;;;13.43;12.13;;;29.00;66.10;;;;;;4968347;28;20046;-68
2022/09/06 12:23:34;;;;;;;12.27;11.23;;;28.90;65.50;;;;;;4972278;28;20088;-68
2022/09/06 12:26:04;;;;;;;20.58;12.05;;;29.00;65.70;;;;;;4970908;28;20042;-67
2022/09/06 12:28:40;;;;;;;10.85;9.85;;;29.00;65.10;;;;;;4971482;28;20050;-67
2022/09/06 12:31:24;;;;;;;12.88;11.57;;;29.00;64.30;;;;;;4971506;28;20091;-67
2022/09/06 12:33:51;;;;;;;11.38;10.27;;;29.00;62.80;;;;;;4952834;29;20049;-68
2022/09/06 12:36:23;;;;;;;11.17;10.00;;;29.00;64.10;;;;;;4967245;28;20042;-69
2022/09/06 12:39:02;;;;;;;11.32;10.20;;;29.00;63.90;;;;;;4969834;28;20310;-68
2022/09/06 12:41:34;;;;;;;10.68;9.88;;;29.00;63.40;;;;;;4953268;28;20066;-68
2022/09/06 12:44:04;;;;;;;11.77;10.68;;;29.10;63.00;;;;;;4944246;28;20152;-68
2022/09/06 12:46:31;;;;;;;10.50;9.52;;;29.20;63.10;;;;;;4968008;28;20153;-69
2022/09/06 12:49:11;;;;;;;17.08;10.38;;;29.20;62.70;;;;;;4964966;28;20105;-68